^^
Saratoga-Weather Station Historical Data
Daily Summary for September 6, 2021 Units:  English    Metric   Both
Daily Weekly Monthly Yearly Custom
  High: Low: Average:
Temperature: 45.9 °F 44.4 °F 45.1 °F
Dew Point: 45.1 °F 43.7 °F 44.4 °F
Humidity: 97% 97% 97%
Wind Speed: 2.9mph 0mph 0.4mph
Wind Gust: 4mph - -
Wind- - South
Pressure: 29.8 in 29.7 in -
Precipitation: 0.38 in    
Historical Graphs
 
 
Tabular Data for September 6, 2021
Time Temperature Dew Point Pressure Wind Wind Speed Wind Gust Humidity Rainfall Rate (Hourly) solar
00:01 45.9 °F 45.1 °F 29.8 in Calm     97% 0.13 in 0 W/m2
00:06 45.9 °F 45.1 °F 29.8 in Calm   1 mph 97% 0.14 in 0 W/m2
00:11 45.7 °F 45 °F 29.8 in Calm     97% 0.15 in 0 W/m2
00:16 45.7 °F 45 °F 29.8 in Calm     97% 0.16 in 0 W/m2
00:21 45.7 °F 45 °F 29.8 in Calm     97% 0.16 in 0 W/m2
00:26 45.7 °F 45 °F 29.8 in Calm     97% 0.16 in 0 W/m2
00:31 45.7 °F 45 °F 29.8 in Calm     97% 0.15 in 0 W/m2
00:36 45.7 °F 45 °F 29.8 in Calm   1 mph 97% 0.14 in 0 W/m2
00:41 45.7 °F 45 °F 29.8 in Calm   2 mph 97% 0.13 in 0 W/m2
00:46 45.5 °F 44.8 °F 29.8 in East 0.9 mph 2 mph 97% 0.13 in 0 W/m2
00:51 45.5 °F 44.8 °F 29.8 in East 0.9 mph 3 mph 97% 0.12 in 0 W/m2
00:56 45.5 °F 44.8 °F 29.8 in East 2.9 mph 3 mph 97% 0.12 in 0 W/m2
01:01 45.5 °F 44.8 °F 29.8 in ESE 0.9 mph 3 mph 97% 0.11 in 0 W/m2
01:06 45.5 °F 44.8 °F 29.8 in Calm   1 mph 97% 0.1 in 0 W/m2
01:11 45.7 °F 45 °F 29.8 in Calm   3 mph 97% 0.1 in 0 W/m2
01:16 45.5 °F 44.8 °F 29.8 in Calm     97% 0.09 in 0 W/m2
01:21 45.7 °F 45 °F 29.8 in Calm   1 mph 97% 0.08 in 0 W/m2
01:26 45.5 °F 44.8 °F 29.8 in Calm   2 mph 97% 0.08 in 0 W/m2
01:31 45.5 °F 44.8 °F 29.8 in East 0.9 mph 2 mph 97% 0.07 in 0 W/m2
01:36 45.5 °F 44.8 °F 29.8 in ESE 0.9 mph 1 mph 97% 0.07 in 0 W/m2
01:41 45.5 °F 44.8 °F 29.8 in Calm   1 mph 97% 0.07 in 0 W/m2
01:46 45.3 °F 44.6 °F 29.8 in Calm   1 mph 97% 0.08 in 0 W/m2
01:51 45.3 °F 44.6 °F 29.8 in Calm     97% 0.08 in 0 W/m2
01:56 45.3 °F 44.6 °F 29.8 in Calm   2 mph 97% 0.07 in 0 W/m2
02:01 45.3 °F 44.6 °F 29.8 in Calm     97% 0.07 in 0 W/m2
02:06 45.3 °F 44.6 °F 29.8 in East 0.9 mph 1 mph 97% 0.08 in 0 W/m2
02:11 45.3 °F 44.6 °F 29.8 in Calm   1 mph 97% 0.08 in 0 W/m2
02:16 45.3 °F 44.6 °F 29.8 in Calm     97% 0.09 in 0 W/m2
02:21 45.3 °F 44.6 °F 29.8 in East 0.9 mph 2 mph 97% 0.09 in 0 W/m2
02:26 45.3 °F 44.6 °F 29.8 in Calm     97% 0.09 in 0 W/m2
02:31 45.3 °F 44.6 °F 29.8 in Calm     97% 0.08 in 0 W/m2
02:36 45.1 °F 44.4 °F 29.8 in ESE 0.9 mph 3 mph 97% 0.09 in 0 W/m2
02:41 45.1 °F 44.4 °F 29.8 in East 0.9 mph 1 mph 97% 0.09 in 0 W/m2
02:46 45.1 °F 44.4 °F 29.8 in Calm     97% 0.09 in 0 W/m2
02:51 45.1 °F 44.4 °F 29.8 in Calm   2 mph 97% 0.09 in 0 W/m2
02:56 45.1 °F 44.4 °F 29.8 in NE 0.9 mph 1 mph 97% 0.08 in 0 W/m2
03:01 45.1 °F 44.4 °F 29.8 in ESE 0.9 mph 2 mph 97% 0.08 in 0 W/m2
03:06 45.1 °F 44.4 °F 29.8 in Calm   1 mph 97% 0.07 in 0 W/m2
03:11 45 °F 44.2 °F 29.8 in Calm   1 mph 97% 0.06 in 0 W/m2
03:17 45 °F 44.2 °F 29.8 in Calm     97% 0.06 in 0 W/m2
03:22 45 °F 44.2 °F 29.8 in Calm     97% 0.06 in 0 W/m2
03:27 45 °F 44.2 °F 29.8 in Calm     97% 0.06 in 0 W/m2
03:32 45 °F 44.2 °F 29.8 in Calm     97% 0.06 in 0 W/m2
03:37 45 °F 44.2 °F 29.8 in NW 2.9 mph 3 mph 97% 0.06 in 0 W/m2
03:42 45 °F 44.2 °F 29.8 in Calm     97% 0.06 in 0 W/m2
03:47 45 °F 44.2 °F 29.8 in Calm     97% 0.06 in 0 W/m2
03:52 45 °F 44.2 °F 29.8 in North 0.9 mph 1 mph 97% 0.06 in 0 W/m2
03:57 45.1 °F 44.4 °F 29.8 in Calm   1 mph 97% 0.06 in 0 W/m2
04:02 45.1 °F 44.4 °F 29.8 in Calm   2 mph 97% 0.06 in 0 W/m2
04:07 45 °F 44.2 °F 29.8 in Calm   1 mph 97% 0.06 in 0 W/m2
04:12 45 °F 44.2 °F 29.8 in NNW 0.9 mph 2 mph 97% 0.06 in 0 W/m2
04:17 45 °F 44.2 °F 29.8 in NNW 0.9 mph 4 mph 97% 0.06 in 0 W/m2
04:22 45 °F 44.2 °F 29.8 in Calm   2 mph 97% 0.06 in 0 W/m2
04:27 45 °F 44.2 °F 29.8 in NW 0.9 mph 4 mph 97% 0.05 in 0 W/m2
04:32 45 °F 44.2 °F 29.8 in Calm   3 mph 97% 0.06 in 0 W/m2
04:37 45 °F 44.2 °F 29.8 in Calm   2 mph 97% 0.06 in 0 W/m2
04:42 45 °F 44.2 °F 29.8 in Calm   2 mph 97% 0.05 in 0 W/m2
04:47 45 °F 44.2 °F 29.8 in NE 0.9 mph 3 mph 97% 0.05 in 0 W/m2
04:52 45 °F 44.2 °F 29.7 in Calm   1 mph 97% 0.04 in 0 W/m2
04:57 45 °F 44.2 °F 29.7 in Calm   3 mph 97% 0.04 in 0 W/m2
05:02 45 °F 44.2 °F 29.7 in Calm     97% 0.04 in 0 W/m2
05:07 44.8 °F 44.1 °F 29.7 in Calm   1 mph 97% 0.03 in 0 W/m2
05:12 44.8 °F 44.1 °F 29.7 in Calm     97% 0.03 in 0 W/m2
05:17 44.8 °F 44.1 °F 29.7 in Calm   2 mph 97% 0.04 in 0 W/m2
05:22 44.8 °F 44.1 °F 29.7 in Calm   1 mph 97% 0.04 in 0 W/m2
05:27 44.8 °F 44.1 °F 29.7 in Calm     97% 0.04 in 0 W/m2
05:32 44.8 °F 44.1 °F 29.7 in Calm   3 mph 97% 0.03 in 0 W/m2
05:37 44.8 °F 44.1 °F 29.7 in North 2 mph 2 mph 97% 0.02 in 0 W/m2
05:42 44.8 °F 44.1 °F 29.7 in North 0.9 mph 1 mph 97% 0.02 in 0 W/m2
05:47 44.8 °F 44.1 °F 29.7 in Calm   2 mph 97% 0.02 in 0 W/m2
05:52 44.8 °F 44.1 °F 29.7 in Calm   1 mph 97% 0.02 in 0 W/m2
05:57 44.6 °F 43.9 °F 29.7 in ESE 0.9 mph 2 mph 97% 0.02 in 0 W/m2
06:02 44.6 °F 43.9 °F 29.7 in ENE 2.9 mph 3 mph 97% 0.02 in 0 W/m2
06:07 44.6 °F 43.9 °F 29.7 in NE 0.9 mph 2 mph 97% 0.02 in 0 W/m2
06:12 44.6 °F 43.9 °F 29.7 in Calm   2 mph 97% 0.02 in 0 W/m2
06:17 44.6 °F 43.9 °F 29.7 in Calm   2 mph 97% 0.01 in 0 W/m2
06:22 44.4 °F 43.7 °F 29.7 in Calm     97% 0.01 in 0 W/m2
06:27 44.4 °F 43.7 °F 29.7 in Calm   2 mph 97% 0.01 in 0 W/m2
06:32 44.6 °F 43.9 °F 29.7 in WNW 2 mph 2 mph 97% 0.01 in 0 W/m2
06:37 44.4 °F 43.7 °F 29.7 in Calm   2 mph 97% 0.01 in 0 W/m2
06:42 44.4 °F 43.7 °F 29.7 in Calm   2 mph 97% 0.01 in 0 W/m2
06:47 44.4 °F 43.7 °F 29.7 in Calm   1 mph 97% 0.01 in 0 W/m2
06:52 44.4 °F 43.7 °F 29.7 in Calm     97% 0.01 in 0 W/m2
06:57 44.4 °F 43.7 °F 29.7 in NW 0.9 mph 1 mph 97% 0.01 in 0 W/m2
07:02 44.4 °F 43.7 °F 29.7 in Calm   1 mph 97% 0.01 in 0 W/m2
Juneau County Weather
Compliments of Weather Underground - 4 mb